sensor_id;sensor_type;location;lat;lon;timestamp;P1;durP1;ratioP1;P2;durP2;ratioP2
54484;SDS011;45006;56.958;24.166;2023-11-21T00:00:15;7.30;;;2.42;;
54484;SDS011;45006;56.958;24.166;2023-11-21T00:02:43;3.88;;;2.42;;
54484;SDS011;45006;56.958;24.166;2023-11-21T00:05:12;5.45;;;2.65;;
54484;SDS011;45006;56.958;24.166;2023-11-21T00:07:43;4.68;;;2.30;;
54484;SDS011;45006;56.958;24.166;2023-11-21T00:10:10;3.97;;;2.38;;
54484;SDS011;45006;56.958;24.166;2023-11-21T00:12:41;5.93;;;2.45;;
54484;SDS011;45006;56.958;24.166;2023-11-21T00:15:08;5.03;;;2.50;;
54484;SDS011;45006;56.958;24.166;2023-11-21T00:17:37;4.07;;;2.33;;
54484;SDS011;45006;56.958;24.166;2023-11-21T00:20:08;12.98;;;2.65;;
54484;SDS011;45006;56.958;24.166;2023-11-21T00:22:35;4.35;;;2.33;;
54484;SDS011;45006;56.958;24.166;2023-11-21T00:25:02;5.93;;;2.28;;
54484;SDS011;45006;56.958;24.166;2023-11-21T00:27:30;4.25;;;2.40;;
54484;SDS011;45006;56.958;24.166;2023-11-21T00:29:57;4.82;;;2.40;;
54484;SDS011;45006;56.958;24.166;2023-11-21T00:32:24;3.42;;;2.47;;
54484;SDS011;45006;56.958;24.166;2023-11-21T00:34:51;4.53;;;2.10;;
54484;SDS011;45006;56.958;24.166;2023-11-21T00:37:18;4.82;;;2.20;;
54484;SDS011;45006;56.958;24.166;2023-11-21T00:39:45;3.75;;;2.30;;
54484;SDS011;45006;56.958;24.166;2023-11-21T00:42:12;5.78;;;2.22;;
54484;SDS011;45006;56.958;24.166;2023-11-21T00:44:39;5.75;;;2.50;;
54484;SDS011;45006;56.958;24.166;2023-11-21T00:47:06;3.90;;;2.10;;
54484;SDS011;45006;56.958;24.166;2023-11-21T00:49:34;3.13;;;2.10;;
54484;SDS011;45006;56.958;24.166;2023-11-21T00:52:01;5.13;;;2.47;;
54484;SDS011;45006;56.958;24.166;2023-11-21T00:54:29;3.20;;;2.00;;
54484;SDS011;45006;56.958;24.166;2023-11-21T00:56:59;3.38;;;2.20;;
54484;SDS011;45006;56.958;24.166;2023-11-21T00:59:26;4.43;;;2.33;;
54484;SDS011;45006;56.958;24.166;2023-11-21T01:01:53;3.80;;;2.20;;
54484;SDS011;45006;56.958;24.166;2023-11-21T01:04:20;4.50;;;2.25;;
54484;SDS011;45006;56.958;24.166;2023-11-21T01:06:47;5.93;;;2.38;;
54484;SDS011;45006;56.958;24.166;2023-11-21T01:09:14;4.78;;;2.28;;
54484;SDS011;45006;56.958;24.166;2023-11-21T01:11:44;3.13;;;1.90;;
54484;SDS011;45006;56.958;24.166;2023-11-21T01:14:12;5.40;;;2.28;;
54484;SDS011;45006;56.958;24.166;2023-11-21T01:16:40;5.63;;;2.03;;
54484;SDS011;45006;56.958;24.166;2023-11-21T01:19:07;4.53;;;1.90;;
54484;SDS011;45006;56.958;24.166;2023-11-21T01:21:34;3.83;;;1.73;;
54484;SDS011;45006;56.958;24.166;2023-11-21T01:24:01;4.25;;;2.00;;
54484;SDS011;45006;56.958;24.166;2023-11-21T01:26:29;4.50;;;2.15;;
54484;SDS011;45006;56.958;24.166;2023-11-21T01:28:56;3.38;;;2.20;;
54484;SDS011;45006;56.958;24.166;2023-11-21T01:31:23;3.17;;;2.00;;
54484;SDS011;45006;56.958;24.166;2023-11-21T01:33:50;4.03;;;2.05;;
54484;SDS011;45006;56.958;24.166;2023-11-21T01:36:17;5.35;;;1.90;;
54484;SDS011;45006;56.958;24.166;2023-11-21T01:38:44;3.38;;;2.03;;
54484;SDS011;45006;56.958;24.166;2023-11-21T01:41:12;4.45;;;2.08;;
54484;SDS011;45006;56.958;24.166;2023-11-21T01:43:41;5.05;;;2.08;;
54484;SDS011;45006;56.958;24.166;2023-11-21T01:46:08;4.00;;;2.13;;
54484;SDS011;45006;56.958;24.166;2023-11-21T01:48:36;7.90;;;2.13;;
54484;SDS011;45006;56.958;24.166;2023-11-21T01:51:05;3.47;;;1.85;;
54484;SDS011;45006;56.958;24.166;2023-11-21T01:53:32;4.78;;;2.00;;
54484;SDS011;45006;56.958;24.166;2023-11-21T01:55:59;7.53;;;2.40;;
54484;SDS011;45006;56.958;24.166;2023-11-21T01:58:26;8.38;;;2.20;;
54484;SDS011;45006;56.958;24.166;2023-11-21T02:00:53;3.72;;;1.88;;
54484;SDS011;45006;56.958;24.166;2023-11-21T02:03:21;6.15;;;1.85;;
54484;SDS011;45006;56.958;24.166;2023-11-21T02:05:48;3.42;;;2.00;;
54484;SDS011;45006;56.958;24.166;2023-11-21T02:08:15;5.30;;;1.90;;
54484;SDS011;45006;56.958;24.166;2023-11-21T02:10:42;7.22;;;2.47;;
54484;SDS011;45006;56.958;24.166;2023-11-21T02:13:09;6.03;;;2.08;;
54484;SDS011;45006;56.958;24.166;2023-11-21T02:15:37;7.82;;;2.13;;
54484;SDS011;45006;56.958;24.166;2023-11-21T02:18:04;9.48;;;1.95;;
54484;SDS011;45006;56.958;24.166;2023-11-21T02:20:33;8.90;;;2.05;;
54484;SDS011;45006;56.958;24.166;2023-11-21T02:23:01;5.28;;;2.03;;
54484;SDS011;45006;56.958;24.166;2023-11-21T02:27:57;5.50;;;1.88;;
54484;SDS011;45006;56.958;24.166;2023-11-21T02:30:25;3.92;;;1.80;;
54484;SDS011;45006;56.958;24.166;2023-11-21T02:32:54;3.40;;;1.90;;
54484;SDS011;45006;56.958;24.166;2023-11-21T02:35:23;3.85;;;2.00;;
54484;SDS011;45006;56.958;24.166;2023-11-21T02:37:52;3.35;;;1.83;;
54484;SDS011;45006;56.958;24.166;2023-11-21T02:40:20;3.05;;;2.10;;
54484;SDS011;45006;56.958;24.166;2023-11-21T02:42:47;3.00;;;1.83;;
54484;SDS011;45006;56.958;24.166;2023-11-21T02:45:14;2.47;;;1.60;;
54484;SDS011;45006;56.958;24.166;2023-11-21T02:47:44;2.60;;;1.63;;
54484;SDS011;45006;56.958;24.166;2023-11-21T02:50:11;2.45;;;1.50;;
54484;SDS011;45006;56.958;24.166;2023-11-21T02:52:38;4.32;;;1.80;;
54484;SDS011;45006;56.958;24.166;2023-11-21T02:55:08;2.78;;;1.63;;
54484;SDS011;45006;56.958;24.166;2023-11-21T02:57:36;3.17;;;1.95;;
54484;SDS011;45006;56.958;24.166;2023-11-21T03:00:03;4.80;;;1.75;;
54484;SDS011;45006;56.958;24.166;2023-11-21T03:02:34;3.45;;;2.08;;
54484;SDS011;45006;56.958;24.166;2023-11-21T03:05:06;2.28;;;1.60;;
54484;SDS011;45006;56.958;24.166;2023-11-21T03:07:39;2.88;;;1.85;;
54484;SDS011;45006;56.958;24.166;2023-11-21T03:10:07;3.35;;;1.80;;
54484;SDS011;45006;56.958;24.166;2023-11-21T03:12:38;6.35;;;1.80;;
54484;SDS011;45006;56.958;24.166;2023-11-21T03:15:05;3.03;;;1.67;;
54484;SDS011;45006;56.958;24.166;2023-11-21T03:17:33;3.60;;;1.83;;
54484;SDS011;45006;56.958;24.166;2023-11-21T03:20:00;4.15;;;1.50;;
54484;SDS011;45006;56.958;24.166;2023-11-21T03:22:30;3.40;;;2.00;;
54484;SDS011;45006;56.958;24.166;2023-11-21T03:24:57;1.85;;;1.40;;
54484;SDS011;45006;56.958;24.166;2023-11-21T03:27:25;5.40;;;1.90;;
54484;SDS011;45006;56.958;24.166;2023-11-21T03:29:52;3.08;;;2.05;;
54484;SDS011;45006;56.958;24.166;2023-11-21T03:32:20;3.13;;;1.90;;
54484;SDS011;45006;56.958;24.166;2023-11-21T03:34:54;2.95;;;1.90;;
54484;SDS011;45006;56.958;24.166;2023-11-21T03:37:25;3.97;;;2.03;;
54484;SDS011;45006;56.958;24.166;2023-11-21T03:39:55;2.90;;;1.75;;
54484;SDS011;45006;56.958;24.166;2023-11-21T03:42:23;5.63;;;1.60;;
54484;SDS011;45006;56.958;24.166;2023-11-21T03:44:53;3.40;;;1.65;;
54484;SDS011;45006;56.958;24.166;2023-11-21T03:47:20;2.67;;;1.70;;
54484;SDS011;45006;56.958;24.166;2023-11-21T03:49:47;2.20;;;1.80;;
54484;SDS011;45006;56.958;24.166;2023-11-21T03:52:15;3.60;;;1.80;;
54484;SDS011;45006;56.958;24.166;2023-11-21T03:54:42;7.35;;;1.80;;
54484;SDS011;45006;56.958;24.166;2023-11-21T03:57:10;2.92;;;1.50;;
54484;SDS011;45006;56.958;24.166;2023-11-21T03:59:41;2.63;;;1.70;;
54484;SDS011;45006;56.958;24.166;2023-11-21T04:02:11;2.63;;;1.60;;
54484;SDS011;45006;56.958;24.166;2023-11-21T04:04:38;3.05;;;1.75;;
54484;SDS011;45006;56.958;24.166;2023-11-21T04:07:05;2.92;;;1.40;;
54484;SDS011;45006;56.958;24.166;2023-11-21T04:09:32;2.90;;;1.65;;
54484;SDS011;45006;56.958;24.166;2023-11-21T04:11:59;2.08;;;1.45;;
54484;SDS011;45006;56.958;24.166;2023-11-21T04:14:26;3.70;;;1.60;;
54484;SDS011;45006;56.958;24.166;2023-11-21T04:16:53;2.33;;;1.60;;
54484;SDS011;45006;56.958;24.166;2023-11-21T04:19:21;1.83;;;1.45;;
54484;SDS011;45006;56.958;24.166;2023-11-21T04:21:48;2.95;;;1.60;;
54484;SDS011;45006;56.958;24.166;2023-11-21T04:24:15;2.28;;;1.38;;
54484;SDS011;45006;56.958;24.166;2023-11-21T04:26:43;2.35;;;1.70;;
54484;SDS011;45006;56.958;24.166;2023-11-21T04:29:10;1.98;;;1.20;;
54484;SDS011;45006;56.958;24.166;2023-11-21T04:31:37;1.92;;;1.52;;
54484;SDS011;45006;56.958;24.166;2023-11-21T04:34:04;2.85;;;1.70;;
54484;SDS011;45006;56.958;24.166;2023-11-21T04:36:31;3.20;;;1.70;;
54484;SDS011;45006;56.958;24.166;2023-11-21T04:38:58;2.13;;;1.58;;
54484;SDS011;45006;56.958;24.166;2023-11-21T04:41:25;2.35;;;1.33;;
54484;SDS011;45006;56.958;24.166;2023-11-21T04:43:52;2.35;;;1.48;;
54484;SDS011;45006;56.958;24.166;2023-11-21T04:46:19;2.42;;;1.40;;
54484;SDS011;45006;56.958;24.166;2023-11-21T04:48:46;2.45;;;1.80;;
54484;SDS011;45006;56.958;24.166;2023-11-21T04:51:13;3.17;;;1.67;;
54484;SDS011;45006;56.958;24.166;2023-11-21T04:53:40;1.98;;;1.50;;
54484;SDS011;45006;56.958;24.166;2023-11-21T04:56:07;1.92;;;1.38;;
54484;SDS011;45006;56.958;24.166;2023-11-21T04:58:34;1.80;;;1.30;;
54484;SDS011;45006;56.958;24.166;2023-11-21T05:01:02;3.17;;;1.45;;
54484;SDS011;45006;56.958;24.166;2023-11-21T05:03:33;2.53;;;1.55;;
54484;SDS011;45006;56.958;24.166;2023-11-21T05:06:01;10.93;;;1.60;;
54484;SDS011;45006;56.958;24.166;2023-11-21T05:08:28;5.78;;;1.60;;
54484;SDS011;45006;56.958;24.166;2023-11-21T05:10:55;2.70;;;1.60;;
54484;SDS011;45006;56.958;24.166;2023-11-21T05:13:22;2.55;;;1.60;;
54484;SDS011;45006;56.958;24.166;2023-11-21T05:15:54;4.15;;;1.50;;
54484;SDS011;45006;56.958;24.166;2023-11-21T05:18:25;3.60;;;1.50;;
54484;SDS011;45006;56.958;24.166;2023-11-21T05:20:56;4.75;;;1.58;;
54484;SDS011;45006;56.958;24.166;2023-11-21T05:23:23;2.55;;;1.52;;
54484;SDS011;45006;56.958;24.166;2023-11-21T05:25:51;2.40;;;1.67;;
54484;SDS011;45006;56.958;24.166;2023-11-21T05:28:18;2.65;;;1.55;;
54484;SDS011;45006;56.958;24.166;2023-11-21T05:30:45;3.08;;;1.60;;
54484;SDS011;45006;56.958;24.166;2023-11-21T05:33:12;5.25;;;1.80;;
54484;SDS011;45006;56.958;24.166;2023-11-21T05:35:39;2.83;;;1.50;;
54484;SDS011;45006;56.958;24.166;2023-11-21T05:38:06;3.75;;;1.50;;
54484;SDS011;45006;56.958;24.166;2023-11-21T05:40:33;2.13;;;1.48;;
54484;SDS011;45006;56.958;24.166;2023-11-21T05:43:00;2.08;;;1.48;;
54484;SDS011;45006;56.958;24.166;2023-11-21T05:45:28;2.33;;;1.60;;
54484;SDS011;45006;56.958;24.166;2023-11-21T05:47:57;3.45;;;1.40;;
54484;SDS011;45006;56.958;24.166;2023-11-21T05:50:25;3.40;;;1.35;;
54484;SDS011;45006;56.958;24.166;2023-11-21T05:52:52;2.35;;;1.60;;
54484;SDS011;45006;56.958;24.166;2023-11-21T05:55:22;4.45;;;1.67;;
54484;SDS011;45006;56.958;24.166;2023-11-21T05:57:52;3.72;;;1.48;;
54484;SDS011;45006;56.958;24.166;2023-11-21T06:00:20;2.97;;;1.58;;
54484;SDS011;45006;56.958;24.166;2023-11-21T06:02:52;2.22;;;1.48;;
54484;SDS011;45006;56.958;24.166;2023-11-21T06:05:22;1.55;;;1.08;;
54484;SDS011;45006;56.958;24.166;2023-11-21T06:07:54;1.95;;;1.00;;
54484;SDS011;45006;56.958;24.166;2023-11-21T06:10:26;2.85;;;1.30;;
54484;SDS011;45006;56.958;24.166;2023-11-21T06:12:55;3.67;;;1.60;;
54484;SDS011;45006;56.958;24.166;2023-11-21T06:15:22;2.95;;;1.38;;
54484;SDS011;45006;56.958;24.166;2023-11-21T06:17:50;2.50;;;1.60;;
54484;SDS011;45006;56.958;24.166;2023-11-21T06:20:20;1.88;;;1.10;;
54484;SDS011;45006;56.958;24.166;2023-11-21T06:22:49;2.70;;;1.20;;
54484;SDS011;45006;56.958;24.166;2023-11-21T06:25:17;2.42;;;1.20;;
54484;SDS011;45006;56.958;24.166;2023-11-21T06:27:45;4.45;;;1.50;;
54484;SDS011;45006;56.958;24.166;2023-11-21T06:30:14;3.70;;;1.40;;
54484;SDS011;45006;56.958;24.166;2023-11-21T06:32:42;2.13;;;1.48;;
54484;SDS011;45006;56.958;24.166;2023-11-21T06:35:13;2.15;;;1.15;;
54484;SDS011;45006;56.958;24.166;2023-11-21T06:37:43;2.25;;;1.40;;
54484;SDS011;45006;56.958;24.166;2023-11-21T06:40:18;2.07;;;1.40;;
54484;SDS011;45006;56.958;24.166;2023-11-21T06:42:47;1.17;;;1.02;;
54484;SDS011;45006;56.958;24.166;2023-11-21T06:45:14;2.20;;;1.23;;
54484;SDS011;45006;56.958;24.166;2023-11-21T06:47:43;1.60;;;1.10;;
54484;SDS011;45006;56.958;24.166;2023-11-21T06:50:10;1.98;;;1.10;;
54484;SDS011;45006;56.958;24.166;2023-11-21T06:52:37;1.42;;;1.08;;
54484;SDS011;45006;56.958;24.166;2023-11-21T06:55:05;1.52;;;1.10;;
54484;SDS011;45006;56.958;24.166;2023-11-21T06:57:35;1.50;;;1.00;;
54484;SDS011;45006;56.958;24.166;2023-11-21T07:00:02;1.52;;;1.20;;
54484;SDS011;45006;56.958;24.166;2023-11-21T07:02:29;2.92;;;1.33;;
54484;SDS011;45006;56.958;24.166;2023-11-21T07:04:56;1.75;;;1.10;;
54484;SDS011;45006;56.958;24.166;2023-11-21T07:07:24;1.95;;;1.15;;
54484;SDS011;45006;56.958;24.166;2023-11-21T07:09:51;1.95;;;1.00;;
54484;SDS011;45006;56.958;24.166;2023-11-21T07:12:18;1.60;;;1.00;;
54484;SDS011;45006;56.958;24.166;2023-11-21T07:14:45;1.48;;;1.00;;
54484;SDS011;45006;56.958;24.166;2023-11-21T07:17:12;1.48;;;0.95;;
54484;SDS011;45006;56.958;24.166;2023-11-21T07:19:40;1.88;;;1.10;;
54484;SDS011;45006;56.958;24.166;2023-11-21T07:22:08;1.58;;;1.10;;
54484;SDS011;45006;56.958;24.166;2023-11-21T07:24:36;3.47;;;1.50;;
54484;SDS011;45006;56.958;24.166;2023-11-21T07:27:03;4.65;;;1.70;;
54484;SDS011;45006;56.958;24.166;2023-11-21T07:29:30;4.10;;;1.75;;
54484;SDS011;45006;56.958;24.166;2023-11-21T07:31:58;11.20;;;2.67;;
54484;SDS011;45006;56.958;24.166;2023-11-21T07:34:25;6.50;;;2.40;;
54484;SDS011;45006;56.958;24.166;2023-11-21T07:36:52;6.93;;;2.60;;
54484;SDS011;45006;56.958;24.166;2023-11-21T07:39:19;7.63;;;2.40;;
54484;SDS011;45006;56.958;24.166;2023-11-21T07:41:48;8.55;;;2.75;;
54484;SDS011;45006;56.958;24.166;2023-11-21T07:44:16;7.63;;;2.45;;
54484;SDS011;45006;56.958;24.166;2023-11-21T07:46:44;16.13;;;2.63;;
54484;SDS011;45006;56.958;24.166;2023-11-21T07:49:11;6.57;;;2.47;;
54484;SDS011;45006;56.958;24.166;2023-11-21T07:51:43;9.48;;;2.83;;
54484;SDS011;45006;56.958;24.166;2023-11-21T07:54:10;5.22;;;2.55;;
54484;SDS011;45006;56.958;24.166;2023-11-21T07:56:37;7.28;;;2.45;;
54484;SDS011;45006;56.958;24.166;2023-11-21T07:59:05;5.05;;;2.35;;
54484;SDS011;45006;56.958;24.166;2023-11-21T08:01:32;7.00;;;2.85;;
54484;SDS011;45006;56.958;24.166;2023-11-21T08:03:59;9.77;;;2.90;;
54484;SDS011;45006;56.958;24.166;2023-11-21T08:06:30;8.32;;;2.65;;
54484;SDS011;45006;56.958;24.166;2023-11-21T08:08:58;5.75;;;2.67;;
54484;SDS011;45006;56.958;24.166;2023-11-21T08:11:25;6.40;;;2.65;;
54484;SDS011;45006;56.958;24.166;2023-11-21T08:13:55;7.55;;;2.70;;
54484;SDS011;45006;56.958;24.166;2023-11-21T08:16:23;6.60;;;2.10;;
54484;SDS011;45006;56.958;24.166;2023-11-21T08:18:50;7.85;;;3.15;;
54484;SDS011;45006;56.958;24.166;2023-11-21T08:21:18;6.10;;;2.42;;
54484;SDS011;45006;56.958;24.166;2023-11-21T08:23:45;12.13;;;3.20;;
54484;SDS011;45006;56.958;24.166;2023-11-21T08:26:15;9.68;;;2.47;;
54484;SDS011;45006;56.958;24.166;2023-11-21T08:28:44;9.55;;;2.67;;
54484;SDS011;45006;56.958;24.166;2023-11-21T08:31:13;8.55;;;2.60;;
54484;SDS011;45006;56.958;24.166;2023-11-21T08:33:41;8.68;;;2.60;;
54484;SDS011;45006;56.958;24.166;2023-11-21T08:36:09;9.82;;;2.65;;
54484;SDS011;45006;56.958;24.166;2023-11-21T08:38:38;10.60;;;2.80;;
54484;SDS011;45006;56.958;24.166;2023-11-21T08:41:06;8.63;;;2.80;;
54484;SDS011;45006;56.958;24.166;2023-11-21T08:43:37;11.30;;;2.80;;
54484;SDS011;45006;56.958;24.166;2023-11-21T08:46:06;8.40;;;3.00;;
54484;SDS011;45006;56.958;24.166;2023-11-21T08:48:38;6.15;;;2.83;;
54484;SDS011;45006;56.958;24.166;2023-11-21T08:51:09;13.88;;;3.45;;
54484;SDS011;45006;56.958;24.166;2023-11-21T08:53:38;10.75;;;2.67;;
54484;SDS011;45006;56.958;24.166;2023-11-21T08:56:05;8.98;;;2.92;;
54484;SDS011;45006;56.958;24.166;2023-11-21T08:58:33;9.60;;;3.13;;
54484;SDS011;45006;56.958;24.166;2023-11-21T09:01:00;11.95;;;3.03;;
54484;SDS011;45006;56.958;24.166;2023-11-21T09:03:27;10.45;;;2.83;;
54484;SDS011;45006;56.958;24.166;2023-11-21T09:05:55;10.80;;;3.22;;
54484;SDS011;45006;56.958;24.166;2023-11-21T09:08:21;11.85;;;3.05;;
54484;SDS011;45006;56.958;24.166;2023-11-21T09:10:48;16.60;;;6.22;;
54484;SDS011;45006;56.958;24.166;2023-11-21T09:13:15;15.68;;;5.32;;
54484;SDS011;45006;56.958;24.166;2023-11-21T09:15:43;15.65;;;5.70;;
54484;SDS011;45006;56.958;24.166;2023-11-21T09:18:13;12.93;;;6.32;;
54484;SDS011;45006;56.958;24.166;2023-11-21T09:20:40;16.92;;;5.70;;
54484;SDS011;45006;56.958;24.166;2023-11-21T09:23:10;11.77;;;5.47;;
54484;SDS011;45006;56.958;24.166;2023-11-21T09:25:37;16.90;;;6.18;;
54484;SDS011;45006;56.958;24.166;2023-11-21T09:28:05;14.82;;;5.35;;
54484;SDS011;45006;56.958;24.166;2023-11-21T09:30:35;12.88;;;5.13;;
54484;SDS011;45006;56.958;24.166;2023-11-21T09:33:03;13.98;;;4.90;;
54484;SDS011;45006;56.958;24.166;2023-11-21T09:35:34;13.50;;;5.25;;
54484;SDS011;45006;56.958;24.166;2023-11-21T09:38:01;15.48;;;5.38;;
54484;SDS011;45006;56.958;24.166;2023-11-21T09:40:32;14.55;;;4.65;;
54484;SDS011;45006;56.958;24.166;2023-11-21T09:42:59;13.02;;;4.88;;
54484;SDS011;45006;56.958;24.166;2023-11-21T09:45:37;12.60;;;4.43;;
54484;SDS011;45006;56.958;24.166;2023-11-21T09:48:06;14.73;;;4.95;;
54484;SDS011;45006;56.958;24.166;2023-11-21T09:50:35;14.13;;;4.35;;
54484;SDS011;45006;56.958;24.166;2023-11-21T09:55:45;11.10;;;4.10;;
54484;SDS011;45006;56.958;24.166;2023-11-21T09:58:14;16.52;;;4.30;;
54484;SDS011;45006;56.958;24.166;2023-11-21T10:00:45;9.80;;;3.90;;
54484;SDS011;45006;56.958;24.166;2023-11-21T10:03:14;14.40;;;4.30;;
54484;SDS011;45006;56.958;24.166;2023-11-21T10:05:42;15.95;;;4.07;;
54484;SDS011;45006;56.958;24.166;2023-11-21T10:08:12;11.70;;;4.05;;
54484;SDS011;45006;56.958;24.166;2023-11-21T10:10:42;12.95;;;4.60;;
54484;SDS011;45006;56.958;24.166;2023-11-21T10:13:16;9.18;;;3.92;;
54484;SDS011;45006;56.958;24.166;2023-11-21T10:15:49;11.63;;;3.72;;
54484;SDS011;45006;56.958;24.166;2023-11-21T10:18:17;9.77;;;3.38;;
54484;SDS011;45006;56.958;24.166;2023-11-21T10:20:45;17.60;;;4.57;;
54484;SDS011;45006;56.958;24.166;2023-11-21T10:23:20;18.92;;;3.78;;
54484;SDS011;45006;56.958;24.166;2023-11-21T10:25:50;11.38;;;3.67;;
54484;SDS011;45006;56.958;24.166;2023-11-21T10:28:19;10.63;;;3.58;;
54484;SDS011;45006;56.958;24.166;2023-11-21T10:30:48;10.88;;;3.78;;
54484;SDS011;45006;56.958;24.166;2023-11-21T10:33:15;14.95;;;3.80;;
54484;SDS011;45006;56.958;24.166;2023-11-21T10:35:49;8.55;;;3.83;;
54484;SDS011;45006;56.958;24.166;2023-11-21T10:38:21;10.23;;;3.30;;
54484;SDS011;45006;56.958;24.166;2023-11-21T10:40:50;8.85;;;3.53;;
54484;SDS011;45006;56.958;24.166;2023-11-21T10:43:18;10.73;;;3.17;;
54484;SDS011;45006;56.958;24.166;2023-11-21T10:45:45;9.57;;;3.38;;
54484;SDS011;45006;56.958;24.166;2023-11-21T10:48:13;12.23;;;4.15;;
54484;SDS011;45006;56.958;24.166;2023-11-21T10:50:45;11.30;;;3.92;;
54484;SDS011;45006;56.958;24.166;2023-11-21T10:53:12;10.55;;;3.50;;
54484;SDS011;45006;56.958;24.166;2023-11-21T10:55:40;8.50;;;3.25;;
54484;SDS011;45006;56.958;24.166;2023-11-21T10:58:07;9.73;;;2.83;;
54484;SDS011;45006;56.958;24.166;2023-11-21T11:00:37;10.73;;;4.00;;
54484;SDS011;45006;56.958;24.166;2023-11-21T11:03:06;6.90;;;3.42;;
54484;SDS011;45006;56.958;24.166;2023-11-21T11:05:42;13.15;;;3.75;;
54484;SDS011;45006;56.958;24.166;2023-11-21T11:08:19;9.45;;;3.22;;
54484;SDS011;45006;56.958;24.166;2023-11-21T11:10:54;8.90;;;3.55;;
54484;SDS011;45006;56.958;24.166;2023-11-21T11:13:25;12.30;;;3.55;;
54484;SDS011;45006;56.958;24.166;2023-11-21T11:15:56;13.20;;;3.45;;
54484;SDS011;45006;56.958;24.166;2023-11-21T11:18:37;8.07;;;3.28;;
54484;SDS011;45006;56.958;24.166;2023-11-21T11:32:52;8.95;;;3.03;;
54484;SDS011;45006;56.958;24.166;2023-11-21T11:35:34;6.85;;;3.15;;
54484;SDS011;45006;56.958;24.166;2023-11-21T11:38:23;8.07;;;3.10;;
54484;SDS011;45006;56.958;24.166;2023-11-21T11:40:53;8.25;;;2.83;;
54484;SDS011;45006;56.958;24.166;2023-11-21T11:43:24;8.27;;;3.17;;
54484;SDS011;45006;56.958;24.166;2023-11-21T11:45:57;8.50;;;3.03;;
54484;SDS011;45006;56.958;24.166;2023-11-21T11:48:30;8.52;;;2.90;;
54484;SDS011;45006;56.958;24.166;2023-11-21T11:51:05;7.78;;;2.60;;
54484;SDS011;45006;56.958;24.166;2023-11-21T11:53:48;11.52;;;3.53;;
54484;SDS011;45006;56.958;24.166;2023-11-21T11:56:19;10.02;;;3.00;;
54484;SDS011;45006;56.958;24.166;2023-11-21T11:58:56;9.20;;;3.22;;
54484;SDS011;45006;56.958;24.166;2023-11-21T12:01:26;9.52;;;3.10;;
54484;SDS011;45006;56.958;24.166;2023-11-21T12:06:43;8.65;;;3.13;;
54484;SDS011;45006;56.958;24.166;2023-11-21T12:09:20;10.93;;;3.50;;
54484;SDS011;45006;56.958;24.166;2023-11-21T12:11:50;10.30;;;2.90;;
54484;SDS011;45006;56.958;24.166;2023-11-21T12:14:18;7.40;;;2.78;;
54484;SDS011;45006;56.958;24.166;2023-11-21T12:16:45;8.73;;;3.40;;
54484;SDS011;45006;56.958;24.166;2023-11-21T12:19:12;7.68;;;3.40;;
54484;SDS011;45006;56.958;24.166;2023-11-21T12:21:40;7.25;;;3.15;;
54484;SDS011;45006;56.958;24.166;2023-11-21T12:24:07;5.93;;;2.97;;
54484;SDS011;45006;56.958;24.166;2023-11-21T12:26:41;6.00;;;3.05;;
54484;SDS011;45006;56.958;24.166;2023-11-21T12:29:09;5.30;;;3.30;;
54484;SDS011;45006;56.958;24.166;2023-11-21T12:31:37;7.38;;;2.88;;
54484;SDS011;45006;56.958;24.166;2023-11-21T12:34:04;10.52;;;3.60;;
54484;SDS011;45006;56.958;24.166;2023-11-21T12:36:33;11.15;;;3.30;;
54484;SDS011;45006;56.958;24.166;2023-11-21T12:39:01;7.72;;;3.30;;
54484;SDS011;45006;56.958;24.166;2023-11-21T12:41:29;8.10;;;3.40;;
54484;SDS011;45006;56.958;24.166;2023-11-21T12:43:58;6.85;;;2.65;;
54484;SDS011;45006;56.958;24.166;2023-11-21T12:46:25;8.85;;;3.10;;
54484;SDS011;45006;56.958;24.166;2023-11-21T12:48:56;6.97;;;2.83;;
54484;SDS011;45006;56.958;24.166;2023-11-21T12:51:25;7.75;;;3.20;;
54484;SDS011;45006;56.958;24.166;2023-11-21T12:53:52;7.32;;;3.58;;
54484;SDS011;45006;56.958;24.166;2023-11-21T12:56:21;8.13;;;3.45;;
54484;SDS011;45006;56.958;24.166;2023-11-21T12:58:50;10.90;;;3.60;;
54484;SDS011;45006;56.958;24.166;2023-11-21T13:01:20;16.73;;;4.55;;
54484;SDS011;45006;56.958;24.166;2023-11-21T13:03:53;7.03;;;3.25;;
54484;SDS011;45006;56.958;24.166;2023-11-21T13:06:20;10.02;;;3.45;;
54484;SDS011;45006;56.958;24.166;2023-11-21T13:08:51;7.28;;;3.30;;
54484;SDS011;45006;56.958;24.166;2023-11-21T13:11:18;7.28;;;3.38;;
54484;SDS011;45006;56.958;24.166;2023-11-21T13:13:46;6.72;;;3.38;;
54484;SDS011;45006;56.958;24.166;2023-11-21T13:16:13;6.82;;;3.25;;
54484;SDS011;45006;56.958;24.166;2023-11-21T13:18:41;10.38;;;3.70;;
54484;SDS011;45006;56.958;24.166;2023-11-21T13:21:10;9.73;;;3.67;;
54484;SDS011;45006;56.958;24.166;2023-11-21T13:23:41;10.20;;;3.85;;
54484;SDS011;45006;56.958;24.166;2023-11-21T13:26:09;7.10;;;3.70;;
54484;SDS011;45006;56.958;24.166;2023-11-21T13:28:36;13.73;;;3.72;;
54484;SDS011;45006;56.958;24.166;2023-11-21T13:31:05;9.25;;;3.58;;
54484;SDS011;45006;56.958;24.166;2023-11-21T13:33:49;17.92;;;4.30;;
54484;SDS011;45006;56.958;24.166;2023-11-21T13:36:22;7.47;;;3.95;;
54484;SDS011;45006;56.958;24.166;2023-11-21T13:38:50;9.07;;;3.65;;
54484;SDS011;45006;56.958;24.166;2023-11-21T13:41:19;8.00;;;3.95;;
54484;SDS011;45006;56.958;24.166;2023-11-21T13:43:46;10.52;;;3.70;;
54484;SDS011;45006;56.958;24.166;2023-11-21T13:46:17;8.07;;;3.78;;
54484;SDS011;45006;56.958;24.166;2023-11-21T13:48:49;10.90;;;3.83;;
54484;SDS011;45006;56.958;24.166;2023-11-21T13:51:23;8.35;;;3.67;;
54484;SDS011;45006;56.958;24.166;2023-11-21T13:54:04;10.77;;;4.00;;
54484;SDS011;45006;56.958;24.166;2023-11-21T13:56:36;10.50;;;4.00;;
54484;SDS011;45006;56.958;24.166;2023-11-21T13:59:05;8.32;;;4.00;;
54484;SDS011;45006;56.958;24.166;2023-11-21T14:02:01;8.93;;;3.60;;
54484;SDS011;45006;56.958;24.166;2023-11-21T14:04:44;9.10;;;4.03;;
54484;SDS011;45006;56.958;24.166;2023-11-21T14:07:27;8.80;;;4.25;;
54484;SDS011;45006;56.958;24.166;2023-11-21T14:10:03;11.20;;;4.15;;
54484;SDS011;45006;56.958;24.166;2023-11-21T14:12:39;13.27;;;4.18;;
54484;SDS011;45006;56.958;24.166;2023-11-21T14:15:09;8.88;;;4.53;;
54484;SDS011;45006;56.958;24.166;2023-11-21T14:17:38;10.25;;;4.18;;
54484;SDS011;45006;56.958;24.166;2023-11-21T14:20:08;13.57;;;4.32;;
54484;SDS011;45006;56.958;24.166;2023-11-21T14:22:43;9.50;;;4.22;;
54484;SDS011;45006;56.958;24.166;2023-11-21T14:25:10;6.75;;;3.85;;
54484;SDS011;45006;56.958;24.166;2023-11-21T14:27:38;8.05;;;4.05;;
54484;SDS011;45006;56.958;24.166;2023-11-21T14:30:05;10.05;;;4.10;;
54484;SDS011;45006;56.958;24.166;2023-11-21T14:32:33;10.15;;;3.95;;
54484;SDS011;45006;56.958;24.166;2023-11-21T14:35:00;8.20;;;4.22;;
54484;SDS011;45006;56.958;24.166;2023-11-21T14:37:27;9.88;;;4.38;;
54484;SDS011;45006;56.958;24.166;2023-11-21T14:39:54;9.13;;;4.07;;
54484;SDS011;45006;56.958;24.166;2023-11-21T14:42:22;13.68;;;4.63;;
54484;SDS011;45006;56.958;24.166;2023-11-21T14:44:51;10.13;;;4.25;;
54484;SDS011;45006;56.958;24.166;2023-11-21T14:47:19;9.02;;;4.00;;
54484;SDS011;45006;56.958;24.166;2023-11-21T14:49:51;8.55;;;4.40;;
54484;SDS011;45006;56.958;24.166;2023-11-21T14:52:20;9.02;;;4.50;;
54484;SDS011;45006;56.958;24.166;2023-11-21T14:55:00;10.05;;;4.38;;
54484;SDS011;45006;56.958;24.166;2023-11-21T14:57:46;11.13;;;4.90;;
54484;SDS011;45006;56.958;24.166;2023-11-21T15:00:17;8.48;;;4.30;;